Time;durP1;ratioP1;P1;durP2;ratioP2;P2;SDS_P1;SDS_P2;PMS_P1;PMS_P2;Temp;Humidity;BMP_temperature;BMP_pressure;BME280_temperature;BME280_humidity;BME280_pressure;Samples;Min_cycle;Max_cycle;Signal;HPM_P1;HPM_P2
2021/06/06 00:01:24;;;;;;;6.93;3.60;;;;;;;20.03;84.33;101427.03;5051437;28;20087;-83
2021/06/06 00:03:52;;;;;;;8.77;4.68;;;;;;;20.07;83.66;101427.63;5051312;28;20025;-83
2021/06/06 00:06:24;;;;;;;5.90;3.67;;;;;;;20.10;82.60;101427.31;5051340;28;20029;-84
2021/06/06 00:08:50;;;;;;;7.15;3.65;;;;;;;20.10;82.03;101425.50;5057080;28;20077;-84
2021/06/06 00:11:21;;;;;;;5.45;3.78;;;;;;;20.00;83.90;101432.66;5064237;28;20071;-84
2021/06/06 00:13:49;;;;;;;8.02;4.07;;;;;;;20.03;83.64;101435.03;5071792;28;20082;-83
2021/06/06 00:16:24;;;;;;;7.75;4.47;;;;;;;19.95;83.87;101437.56;5075031;28;20033;-83
2021/06/06 00:18:50;;;;;;;6.75;4.40;;;;;;;19.88;84.29;101436.44;5074956;28;20024;-84
2021/06/06 00:21:16;;;;;;;7.60;4.72;;;;;;;19.80;85.40;101440.63;5073622;28;20039;-83
2021/06/06 00:23:42;;;;;;;5.60;3.95;;;;;;;19.75;85.28;101436.72;5077390;28;20475;-83
2021/06/06 00:26:08;;;;;;;6.00;4.03;;;;;;;19.82;85.25;101443.16;5079651;28;20035;-84
2021/06/06 00:28:33;;;;;;;10.10;4.53;;;;;;;19.76;85.35;101430.41;5079601;28;20051;-83
2021/06/06 00:31:00;;;;;;;6.05;3.80;;;;;;;19.74;85.44;101438.53;5080082;28;20028;-84
2021/06/06 00:33:26;;;;;;;6.32;4.35;;;;;;;19.67;85.67;101439.19;5078090;28;20107;-83
2021/06/06 00:35:52;;;;;;;6.88;4.63;;;;;;;19.62;86.30;101434.28;5072123;28;20085;-84
2021/06/06 00:38:17;;;;;;;5.53;4.13;;;;;;;19.64;88.07;101435.00;5054915;28;20156;-84
2021/06/06 00:40:43;;;;;;;7.45;4.85;;;;;;;19.65;87.28;101435.81;5054672;28;20036;-84
2021/06/06 00:43:09;;;;;;;5.80;4.13;;;;;;;19.62;87.33;101434.28;5054758;28;20032;-84
2021/06/06 00:45:37;;;;;;;5.40;4.75;;;;;;;19.56;87.79;101432.19;5054693;28;20115;-84
2021/06/06 00:48:05;;;;;;;8.60;4.70;;;;;;;19.57;87.60;101434.72;5054683;28;20027;-84
2021/06/06 00:50:35;;;;;;;6.72;3.85;;;;;;;19.55;87.75;101431.34;5054276;28;20025;-84
2021/06/06 00:53:11;;;;;;;9.00;4.82;;;;;;;19.55;88.54;101423.34;5072214;28;20540;-84
2021/06/06 00:55:38;;;;;;;5.40;4.38;;;;;;;19.53;87.78;101419.97;5072434;28;20107;-84
2021/06/06 00:58:08;;;;;;;5.88;4.75;;;;;;;19.52;87.27;101420.94;5074353;28;20027;-84
2021/06/06 01:00:42;;;;;;;7.05;4.65;;;;;;;19.54;87.49;101424.31;5072912;28;20378;-84
2021/06/06 01:03:09;;;;;;;8.55;5.00;;;;;;;19.45;88.00;101419.84;5072947;28;20531;-84
2021/06/06 01:05:40;;;;;;;6.35;4.95;;;;;;;19.48;88.86;101424.88;5074289;28;20035;-84
2021/06/06 01:08:08;;;;;;;6.45;4.85;;;;;;;19.51;89.02;101429.94;5074653;28;20032;-84
2021/06/06 01:10:34;;;;;;;8.55;5.18;;;;;;;19.61;88.28;101424.63;5070672;28;20477;-84
2021/06/06 01:13:10;;;;;;;7.18;5.50;;;;;;;19.61;88.22;101421.97;5072319;28;20111;-84
2021/06/06 01:15:37;;;;;;;6.80;5.07;;;;;;;19.64;88.85;101421.66;5074066;28;20028;-84
2021/06/06 01:18:11;;;;;;;6.45;4.60;;;;;;;19.62;88.19;101420.97;5073717;28;20383;-84
2021/06/06 01:20:55;;;;;;;7.47;5.43;;;;;;;19.57;87.99;101417.91;5073917;28;20050;-84
2021/06/06 01:23:33;;;;;;;5.65;4.68;;;;;;;19.66;87.96;101417.03;5073750;28;20037;-84
2021/06/06 01:26:03;;;;;;;5.53;4.25;;;;;;;19.56;87.33;101416.19;5072032;28;20107;-84
2021/06/06 01:28:39;;;;;;;7.90;4.78;;;;;;;19.56;88.87;101419.69;5073646;28;20032;-84
2021/06/06 01:31:06;;;;;;;5.38;4.88;;;;;;;19.48;87.63;101416.03;5073556;28;20072;-84
2021/06/06 01:33:34;;;;;;;8.23;5.00;;;;;;;19.49;88.11;101409.72;5073555;28;20112;-84
2021/06/06 01:36:22;;;;;;;6.05;4.72;;;;;;;19.55;88.10;101418.03;5073653;28;20025;-84
2021/06/06 01:38:54;;;;;;;6.53;4.60;;;;;;;19.71;86.71;101404.19;5073599;28;20028;-84
2021/06/06 01:41:23;;;;;;;7.63;4.95;;;;;;;19.89;85.13;101406.16;5053339;28;20028;-84
2021/06/06 01:43:52;;;;;;;6.10;4.97;;;;;;;19.86;85.07;101401.09;5053300;28;20033;-84
2021/06/06 01:46:24;;;;;;;5.13;4.63;;;;;;;19.62;87.18;101407.66;5053311;28;20031;-84
2021/06/06 01:48:52;;;;;;;6.43;5.15;;;;;;;19.42;88.66;101404.13;5065687;28;20036;-84
2021/06/06 01:51:23;;;;;;;4.68;4.22;;;;;;;19.54;87.49;101403.00;5073170;28;20033;-84
2021/06/06 01:53:50;;;;;;;5.68;3.63;;;;;;;19.57;87.37;101397.41;5071931;28;20429;-84
2021/06/06 01:56:20;;;;;;;5.22;4.63;;;;;;;19.54;87.59;101395.00;5073069;28;20058;-84
2021/06/06 01:58:47;;;;;;;5.40;4.90;;;;;;;19.48;87.84;101389.41;5073031;28;20033;-83
2021/06/06 02:01:14;;;;;;;5.85;4.47;;;;;;;19.48;87.74;101395.56;5073060;28;20028;-84
2021/06/06 02:03:41;;;;;;;7.57;4.70;;;;;;;19.47;89.08;101391.25;5049406;28;20506;-84
2021/06/06 02:06:11;;;;;;;5.25;4.63;;;;;;;19.48;88.71;101389.41;5033103;28;20364;-84
2021/06/06 02:08:37;;;;;;;7.30;5.47;;;;;;;19.40;89.48;101385.59;5032981;28;20026;-84
2021/06/06 02:11:11;;;;;;;5.70;5.10;;;;;;;19.44;89.04;101385.34;5031976;28;20036;-84
2021/06/06 02:13:43;;;;;;;5.65;4.47;;;;;;;19.53;87.88;101384.50;5032868;28;20479;-84
2021/06/06 02:16:15;;;;;;;4.47;4.07;;;;;;;19.49;88.00;101391.06;5032983;28;20022;-84
2021/06/06 02:18:41;;;;;;;7.95;4.60;;;;;;;19.51;87.58;101381.13;5032867;28;20029;-84
2021/06/06 02:21:07;;;;;;;6.65;4.38;;;;;;;19.46;87.10;101394.03;5032819;28;20025;-84
2021/06/06 02:23:36;;;;;;;8.98;5.60;;;;;;;19.44;88.43;101391.50;5032563;28;20034;-84
2021/06/06 02:26:08;;;;;;;8.95;5.32;;;;;;;19.41;87.92;101394.44;5031524;28;20480;-84
2021/06/06 02:28:46;;;;;;;7.22;5.25;;;;;;;19.42;87.58;101385.47;5053881;28;20136;-84
2021/06/06 02:31:33;;;;;;;8.20;5.22;;;;;;;19.39;88.13;101388.41;5052187;28;20033;-84
2021/06/06 02:34:14;;;;;;;8.35;5.47;;;;;;;19.48;87.36;101390.25;5052210;28;20395;-84
2021/06/06 02:36:47;;;;;;;7.57;6.22;;;;;;;19.48;87.32;101381.41;5052608;28;20086;-84
2021/06/06 02:39:20;;;;;;;6.03;5.35;;;;;;;19.50;87.16;101380.28;5052409;28;20112;-84
2021/06/06 02:42:11;;;;;;;9.63;5.35;;;;;;;19.38;87.92;101379.56;5052197;28;20379;-84
2021/06/06 02:44:42;;;;;;;6.53;5.45;;;;;;;19.35;87.64;101389.66;5053389;28;20040;-84
2021/06/06 02:47:08;;;;;;;9.20;5.78;;;;;;;19.36;88.14;101380.69;5052360;28;20021;-84
2021/06/06 02:49:37;;;;;;;7.68;5.80;;;;;;;19.37;88.81;101390.34;5052279;28;20048;-84
2021/06/06 02:52:15;;;;;;;7.40;6.65;;;;;;;19.25;89.13;101386.97;5052087;28;20094;-84
2021/06/06 02:55:06;;;;;;;8.30;6.40;;;;;;;19.33;88.60;101384.50;5071478;28;20036;-84
2021/06/06 02:57:34;;;;;;;8.52;6.60;;;;;;;19.49;88.30;101380.44;5072074;28;20060;-84
2021/06/06 03:00:28;;;;;;;8.02;6.10;;;;;;;19.72;86.41;101370.38;5072169;28;20055;-83
2021/06/06 03:03:00;;;;;;;9.57;6.40;;;;;;;19.80;85.52;101378.50;5072150;28;20039;-83
2021/06/06 03:05:29;;;;;;;10.00;7.03;;;;;;;19.73;86.67;101372.91;5071932;28;20109;-84
2021/06/06 03:07:58;;;;;;;8.65;6.57;;;;;;;19.75;87.28;101375.44;5070272;28;20166;-84
2021/06/06 03:10:26;;;;;;;8.50;7.68;;;;;;;19.64;87.29;101381.69;5071852;28;20466;-84
2021/06/06 03:12:54;;;;;;;7.30;6.63;;;;;;;19.70;87.21;101375.81;5071795;28;20037;-84
2021/06/06 03:15:26;;;;;;;11.20;7.95;;;;;;;19.74;87.96;101376.41;5071854;28;20028;-83
2021/06/06 03:17:53;;;;;;;9.30;7.47;;;;;;;19.66;86.89;101366.41;5071936;28;20070;-84
2021/06/06 03:20:32;;;;;;;9.95;7.07;;;;;;;19.68;86.91;101361.78;5071773;28;20028;-83
2021/06/06 03:23:00;;;;;;;10.52;7.13;;;;;;;19.75;86.66;101372.78;5063889;28;20025;-83
2021/06/06 03:25:47;;;;;;;8.27;6.85;;;;;;;19.71;87.59;101371.34;5051583;28;20040;-83
2021/06/06 03:28:16;;;;;;;9.60;7.00;;;;;;;19.77;86.61;101374.31;5051940;28;20017;-83
2021/06/06 03:30:47;;;;;;;8.70;7.03;;;;;;;19.76;86.35;101375.28;5051640;28;20563;-83
2021/06/06 03:33:20;;;;;;;9.55;8.32;;;;;;;19.75;86.54;101378.94;5051691;28;20052;-83
2021/06/06 03:35:45;;;;;;;12.60;7.25;;;;;;;19.74;86.32;101376.41;5051694;28;20029;-83
2021/06/06 03:38:12;;;;;;;10.75;7.22;;;;;;;19.73;86.59;101364.09;5052661;28;20430;-83
2021/06/06 03:40:40;;;;;;;7.80;6.88;;;;;;;19.80;85.68;101371.34;5053416;28;20075;-84
2021/06/06 03:43:08;;;;;;;10.65;7.28;;;;;;;19.76;85.46;101369.94;5052412;28;20028;-83
2021/06/06 03:45:33;;;;;;;8.13;7.05;;;;;;;19.76;84.82;101367.28;5064987;28;20028;-83
2021/06/06 03:47:59;;;;;;;10.55;7.45;;;;;;;19.77;84.54;101371.66;5055356;28;20017;-83
2021/06/06 03:50:25;;;;;;;11.13;7.60;;;;;;;19.73;85.07;101370.25;5053972;28;20025;-83
2021/06/06 03:52:51;;;;;;;9.13;7.68;;;;;;;19.72;86.06;101371.22;5056855;28;20025;-83
2021/06/06 03:55:17;;;;;;;9.15;7.32;;;;;;;19.73;86.58;101378.25;5055388;28;20031;-83
2021/06/06 03:57:43;;;;;;;8.13;6.95;;;;;;;19.77;85.95;101371.66;5055348;28;20095;-83
2021/06/06 04:00:14;;;;;;;9.90;7.60;;;;;;;19.80;86.24;101376.69;5055353;28;20459;-83
2021/06/06 04:02:41;;;;;;;9.82;7.40;;;;;;;19.73;84.94;101369.41;5034911;28;20033;-83
2021/06/06 04:05:07;;;;;;;9.38;7.25;;;;;;;19.75;85.78;101368.28;5035211;28;20026;-83
2021/06/06 04:07:32;;;;;;;7.78;6.88;;;;;;;19.76;85.55;101369.94;5035382;28;20031;-83
2021/06/06 04:10:00;;;;;;;9.02;7.35;;;;;;;19.78;86.12;101370.66;5035460;28;20025;-83
2021/06/06 04:12:25;;;;;;;12.65;7.43;;;;;;;19.77;86.81;101365.47;5034938;28;20476;-83
2021/06/06 04:14:51;;;;;;;8.32;6.57;;;;;;;19.77;86.49;101368.97;5035284;28;20063;-83
2021/06/06 04:17:16;;;;;;;7.78;6.88;;;;;;;19.78;86.36;101370.66;5066892;28;20024;-83
2021/06/06 04:19:42;;;;;;;7.78;6.43;;;;;;;19.77;85.73;101368.97;5074993;28;20045;-83
2021/06/06 04:22:07;;;;;;;7.63;6.82;;;;;;;19.76;86.25;101367.28;5074739;28;20035;-83
2021/06/06 04:24:33;;;;;;;7.82;6.60;;;;;;;19.80;85.77;101368.69;5067535;28;20043;-83
2021/06/06 04:26:58;;;;;;;10.27;7.78;;;;;;;19.74;85.93;101369.25;5054840;28;20124;-83
2021/06/06 04:29:24;;;;;;;7.45;6.65;;;;;;;19.78;85.70;101365.31;5058557;28;20492;-83
2021/06/06 04:31:49;;;;;;;9.43;6.50;;;;;;;19.81;85.49;101369.53;5074601;28;20029;-83
2021/06/06 04:34:14;;;;;;;7.72;6.93;;;;;;;19.78;85.82;101365.31;5074756;28;20466;-83
2021/06/06 04:36:40;;;;;;;8.63;7.32;;;;;;;19.77;86.03;101366.31;5059285;28;20383;-83
2021/06/06 04:39:06;;;;;;;8.00;7.20;;;;;;;19.79;87.33;101364.34;5057892;28;20064;-83
2021/06/06 04:41:31;;;;;;;10.43;7.88;;;;;;;19.83;85.76;101369.38;5074584;28;20355;-83
2021/06/06 04:43:56;;;;;;;7.00;6.15;;;;;;;19.81;85.98;101361.56;5074032;28;20040;-83
2021/06/06 04:46:22;;;;;;;8.25;6.93;;;;;;;19.87;85.34;101371.66;5073083;28;20051;-83
2021/06/06 04:48:48;;;;;;;9.32;7.10;;;;;;;19.80;86.11;101367.84;5074221;28;20028;-83
2021/06/06 04:51:21;;;;;;;8.43;7.57;;;;;;;19.76;86.59;101364.63;5074296;28;20378;-83
2021/06/06 04:53:47;;;;;;;11.02;7.35;;;;;;;19.88;87.67;101375.16;5072459;28;20029;-83
2021/06/06 04:56:15;;;;;;;10.30;7.10;;;;;;;19.93;86.95;101378.25;5072268;28;20043;-83
2021/06/06 04:58:40;;;;;;;8.77;7.45;;;;;;;19.78;87.49;101372.47;5074009;28;20254;-84
2021/06/06 05:01:06;;;;;;;7.75;6.95;;;;;;;19.77;88.81;101376.13;5054548;28;20636;-84
2021/06/06 05:03:32;;;;;;;7.53;6.45;;;;;;;19.87;87.92;101378.81;5054047;28;20025;-84
2021/06/06 05:05:57;;;;;;;8.23;7.43;;;;;;;19.71;88.10;101369.53;5067149;28;20028;-84
2021/06/06 05:08:24;;;;;;;7.55;6.75;;;;;;;19.73;89.18;101372.91;5074311;28;20473;-84
2021/06/06 05:10:51;;;;;;;10.73;7.70;;;;;;;19.71;88.60;101372.22;5070974;28;20035;-84
2021/06/06 05:13:18;;;;;;;7.78;7.03;;;;;;;19.85;87.62;101372.78;5074091;28;20029;-83
2021/06/06 05:15:44;;;;;;;9.75;7.60;;;;;;;19.85;87.98;101370.94;5072471;28;20060;-83
2021/06/06 05:18:11;;;;;;;7.35;6.30;;;;;;;20.00;87.89;101376.66;5073607;28;20109;-83
2021/06/06 05:20:41;;;;;;;10.43;8.20;;;;;;;19.95;87.46;101378.94;5069711;28;20017;-84
2021/06/06 05:23:07;;;;;;;7.78;6.97;;;;;;;20.00;88.63;101382.00;5073716;28;20036;-84
2021/06/06 05:25:35;;;;;;;8.55;7.25;;;;;;;20.03;88.04;101373.72;5048005;28;20111;-84
2021/06/06 05:28:00;;;;;;;7.05;6.35;;;;;;;20.01;87.26;101375.69;5033870;28;20017;-84
2021/06/06 05:30:31;;;;;;;9.02;7.13;;;;;;;19.97;86.79;101383.13;5053624;28;20037;-84
2021/06/06 05:32:57;;;;;;;9.43;7.35;;;;;;;19.97;87.52;101382.28;5057999;28;20383;-84
2021/06/06 05:35:26;;;;;;;7.78;6.53;;;;;;;20.05;88.07;101382.44;5073669;28;20036;-83
2021/06/06 05:37:52;;;;;;;8.10;6.82;;;;;;;20.08;86.77;101373.28;5073384;28;20020;-83
2021/06/06 05:40:18;;;;;;;7.75;7.05;;;;;;;20.10;87.64;101390.84;5073534;28;20025;-83
2021/06/06 05:42:46;;;;;;;7.18;6.47;;;;;;;20.14;86.63;101384.25;5073347;28;20039;-82
2021/06/06 05:45:13;;;;;;;7.63;6.60;;;;;;;20.21;86.00;101368.50;5071606;28;20025;-83
2021/06/06 05:47:38;;;;;;;6.55;5.85;;;;;;;20.26;86.48;101376.06;5071867;28;20017;-82
2021/06/06 05:50:05;;;;;;;8.13;6.15;;;;;;;20.31;85.87;101373.81;5060078;28;20117;-82
2021/06/06 05:52:32;;;;;;;6.90;6.20;;;;;;;20.36;85.86;101383.06;5053238;28;20498;-83
2021/06/06 05:54:59;;;;;;;6.88;6.18;;;;;;;20.38;85.62;101385.59;5053259;28;20025;-83
2021/06/06 05:57:24;;;;;;;7.43;6.38;;;;;;;20.41;85.12;101385.28;5053267;28;20049;-83
2021/06/06 05:59:50;;;;;;;6.82;6.13;;;;;;;20.35;85.57;101384.03;5054094;28;20056;-83
2021/06/06 06:02:15;;;;;;;8.68;6.65;;;;;;;20.40;85.73;101383.63;5053028;28;20029;-83
2021/06/06 06:04:41;;;;;;;7.50;6.80;;;;;;;20.28;86.02;101392.75;5055104;28;20432;-84
2021/06/06 06:07:06;;;;;;;7.45;6.75;;;;;;;20.18;88.47;101396.31;5052221;28;20083;-83
2021/06/06 06:09:32;;;;;;;8.63;6.93;;;;;;;20.23;87.45;101392.38;5061408;28;20363;-83
2021/06/06 06:11:57;;;;;;;6.70;5.22;;;;;;;20.33;85.82;101387.84;5073304;28;20028;-83
2021/06/06 06:14:22;;;;;;;7.75;6.95;;;;;;;20.06;86.39;101393.91;5071201;28;20020;-83
2021/06/06 06:16:48;;;;;;;7.47;6.60;;;;;;;20.18;85.42;101380.31;5073142;28;20470;-84
2021/06/06 06:19:13;;;;;;;7.95;6.95;;;;;;;20.23;85.85;101397.69;5072514;28;20492;-83
2021/06/06 06:21:40;;;;;;;6.82;6.13;;;;;;;20.36;85.32;101392.91;5055665;28;20021;-84
2021/06/06 06:24:07;;;;;;;8.00;7.20;;;;;;;20.32;84.73;101386.16;5052545;28;20399;-84
2021/06/06 06:26:33;;;;;;;8.43;7.10;;;;;;;20.29;85.69;101397.13;5052616;28;20025;-84
2021/06/06 06:28:58;;;;;;;9.10;7.47;;;;;;;20.25;84.64;101398.41;5053536;28;20040;-84
2021/06/06 06:31:24;;;;;;;9.13;8.20;;;;;;;20.26;85.77;101392.06;5052360;28;20028;-84
2021/06/06 06:33:50;;;;;;;7.43;6.70;;;;;;;20.32;85.35;101396.81;5053058;28;20041;-84
2021/06/06 06:36:18;;;;;;;7.88;6.13;;;;;;;20.38;84.65;101396.28;5052633;28;20096;-84
2021/06/06 06:38:45;;;;;;;7.75;6.95;;;;;;;20.35;84.76;101391.22;5052156;28;20029;-84
2021/06/06 06:41:10;;;;;;;8.63;7.20;;;;;;;20.30;85.27;101399.66;5052218;28;20033;-84
2021/06/06 06:43:36;;;;;;;8.52;7.68;;;;;;;20.33;85.68;101393.19;5053173;28;20505;-84
2021/06/06 06:46:01;;;;;;;10.60;7.53;;;;;;;20.36;87.14;101398.25;5052286;28;20021;-84
2021/06/06 06:48:29;;;;;;;8.65;7.57;;;;;;;20.30;87.27;101399.66;5053496;28;20028;-84
2021/06/06 06:50:56;;;;;;;7.13;6.43;;;;;;;20.33;86.78;101406.53;5050717;28;20060;-84
2021/06/06 06:53:22;;;;;;;8.02;6.75;;;;;;;20.39;86.77;101401.44;5056730;28;20036;-84
2021/06/06 06:55:48;;;;;;;7.20;6.43;;;;;;;20.36;86.52;101403.56;5071661;28;20017;-84
2021/06/06 06:58:14;;;;;;;9.63;6.95;;;;;;;20.29;86.89;101411.28;5070124;28;20043;-84
2021/06/06 07:00:43;;;;;;;9.00;6.20;;;;;;;20.45;87.17;101418.69;5070312;28;20024;-85
2021/06/06 07:03:11;;;;;;;7.47;6.45;;;;;;;20.33;87.90;101415.34;5040666;28;20041;-85
2021/06/06 07:05:36;;;;;;;6.30;5.63;;;;;;;20.39;88.23;101411.28;5032028;28;20029;-85
2021/06/06 07:08:04;;;;;;;6.97;5.22;;;;;;;20.55;87.80;101408.00;5039013;28;20475;-85
2021/06/06 07:10:32;;;;;;;7.97;6.82;;;;;;;20.54;87.99;101407.16;5041334;28;20105;-85
2021/06/06 07:12:58;;;;;;;7.65;6.05;;;;;;;20.73;87.21;101419.63;5064059;28;20032;-85
2021/06/06 07:15:24;;;;;;;4.85;4.30;;;;;;;20.86;85.15;101415.81;5062788;28;20097;-85
2021/06/06 07:17:50;;;;;;;6.13;5.18;;;;;;;20.83;85.19;101422.25;5051576;28;20414;-85
2021/06/06 07:20:21;;;;;;;7.57;5.78;;;;;;;20.87;85.67;101420.97;5051703;28;20100;-85
2021/06/06 07:22:47;;;;;;;6.60;5.45;;;;;;;21.04;85.08;101424.69;5051695;28;20079;-84
2021/06/06 07:25:15;;;;;;;5.82;5.10;;;;;;;20.98;82.67;101426.13;5051701;28;20032;-85
2021/06/06 07:27:44;;;;;;;6.20;4.85;;;;;;;20.97;84.77;101419.13;5050319;28;20048;-85
2021/06/06 07:30:15;;;;;;;6.03;4.55;;;;;;;20.79;83.90;101434.22;5054292;28;20052;-85
2021/06/06 07:32:40;;;;;;;7.47;4.70;;;;;;;20.79;83.83;101426.22;5063486;28;20087;-85
2021/06/06 07:35:09;;;;;;;4.88;4.38;;;;;;;20.87;84.39;101428.97;5049521;28;20029;-85
2021/06/06 07:37:34;;;;;;;5.60;4.45;;;;;;;20.88;83.48;101424.50;5049825;28;20061;-85
2021/06/06 07:40:01;;;;;;;7.80;4.93;;;;;;;20.83;84.91;101427.59;5040515;28;20435;-85
2021/06/06 07:42:26;;;;;;;4.85;4.43;;;;;;;20.91;84.80;101427.72;5063617;28;20047;-85
2021/06/06 07:44:52;;;;;;;5.75;4.53;;;;;;;21.14;82.48;101424.66;5063773;28;20425;-85
2021/06/06 07:47:17;;;;;;;5.18;4.68;;;;;;;21.11;84.05;101432.94;5066943;28;20062;-85
2021/06/06 07:49:43;;;;;;;5.30;4.80;;;;;;;21.21;83.87;101428.44;5051335;28;20459;-85
2021/06/06 07:52:09;;;;;;;4.85;4.35;;;;;;;21.35;83.93;101427.09;5054020;28;20021;-85
2021/06/06 07:54:34;;;;;;;8.85;4.90;;;;;;;21.38;83.33;101426.75;5060249;28;20052;-85
2021/06/06 07:57:00;;;;;;;4.90;4.40;;;;;;;21.57;82.09;101420.50;5057782;28;20371;-83
2021/06/06 07:59:26;;;;;;;4.93;4.30;;;;;;;21.49;82.14;101421.25;5066603;28;20029;-84
2021/06/06 08:01:52;;;;;;;5.80;4.97;;;;;;;21.65;81.57;101433.94;5071643;28;20352;-84
2021/06/06 08:04:17;;;;;;;5.90;4.90;;;;;;;21.55;81.51;101423.31;5061755;28;20115;-85
2021/06/06 08:06:43;;;;;;;5.53;4.43;;;;;;;21.65;81.53;101433.09;5043083;28;20049;-84
2021/06/06 08:09:09;;;;;;;4.93;4.45;;;;;;;21.72;82.16;101428.81;5046717;28;20526;-84
2021/06/06 08:11:36;;;;;;;5.28;3.83;;;;;;;21.82;79.15;101434.09;5051141;28;20086;-84
2021/06/06 08:14:02;;;;;;;4.50;3.63;;;;;;;21.86;79.55;101430.09;5051070;28;20098;-84
2021/06/06 08:16:28;;;;;;;4.85;4.03;;;;;;;22.01;80.60;101438.44;5051677;28;20029;-84
2021/06/06 08:18:53;;;;;;;3.72;2.97;;;;;;;22.15;78.71;101438.72;5050304;28;20486;-85
2021/06/06 08:21:19;;;;;;;3.85;3.55;;;;;;;22.13;77.78;101435.34;5058143;28;20032;-85
2021/06/06 08:23:44;;;;;;;3.92;3.63;;;;;;;22.41;76.00;101427.22;5066825;28;20072;-85
2021/06/06 08:26:12;;;;;;;4.50;3.17;;;;;;;22.78;75.88;101431.47;5051048;28;20075;-86
2021/06/06 08:28:38;;;;;;;3.83;3.42;;;;;;;23.00;75.09;101432.75;5044230;28;20033;-85
2021/06/06 08:31:11;;;;;;;4.60;3.53;;;;;;;23.09;74.54;101429.16;5049907;28;20033;-85
2021/06/06 08:33:39;;;;;;;3.38;3.08;;;;;;;22.65;75.31;101428.38;5056708;28;20021;-85
2021/06/06 08:36:21;;;;;;;3.67;3.25;;;;;;;23.05;73.56;101426.97;5053354;28;20025;-85
2021/06/06 08:38:47;;;;;;;3.08;2.75;;;;;;;23.41;72.32;101421.38;5058335;28;20104;-84
2021/06/06 08:41:36;;;;;;;2.90;2.58;;;;;;;23.63;70.27;101428.78;5045892;28;20033;-84
2021/06/06 08:44:06;;;;;;;2.50;2.30;;;;;;;23.41;71.72;101424.88;5053919;28;20029;-84
2021/06/06 08:46:35;;;;;;;3.13;2.88;;;;;;;23.76;68.37;101421.09;5054032;28;20024;-84
2021/06/06 08:49:01;;;;;;;2.85;2.33;;;;;;;24.39;65.17;101417.91;5054418;28;20032;-84
2021/06/06 08:51:48;;;;;;;4.93;2.90;;;;;;;24.58;66.37;101422.94;5066901;28;20028;-84
2021/06/06 08:54:44;;;;;;;2.50;2.30;;;;;;;25.42;62.54;101409.84;5063307;28;20064;-84
2021/06/06 08:57:40;;;;;;;2.30;2.10;;;;;;;25.52;60.15;101406.94;5055441;28;20506;-84
2021/06/06 09:00:18;;;;;;;5.18;3.50;;;;;;;25.83;60.57;101411.41;5049490;28;20079;-85
2021/06/06 09:02:55;;;;;;;2.33;1.73;;;;;;;25.49;61.41;101409.97;5068200;28;20043;-84
2021/06/06 09:05:27;;;;;;;2.28;2.08;;;;;;;25.04;60.66;101408.84;5054402;28;20506;-84
2021/06/06 09:07:54;;;;;;;;;;;;;;;24.84;62.49;101413.78;5056439;28;20095;-83
2021/06/06 09:10:24;;;;;;;2.38;1.58;;;;;;;24.96;62.42;101408.88;5057096;28;19916;-84
2021/06/06 09:12:50;;;;;;;1.67;1.30;;;;;;;25.07;61.68;101413.88;5071844;28;20029;-84
2021/06/06 09:15:18;;;;;;;2.05;1.30;;;;;;;24.79;62.25;101417.00;5053766;28;20039;-84
2021/06/06 09:17:49;;;;;;;1.60;1.50;;;;;;;24.61;63.38;101421.78;5053900;28;20013;-84
2021/06/06 09:20:29;;;;;;;1.33;1.23;;;;;;;24.78;63.19;101409.94;5052586;28;20064;-84
2021/06/06 09:23:20;;;;;;;2.17;1.00;;;;;;;25.01;60.68;101420.78;5033810;28;20032;-84
2021/06/06 09:25:59;;;;;;;2.30;0.60;;;;;;;25.12;60.11;101412.34;5049434;28;20488;-84
2021/06/06 09:28:29;;;;;;;0.93;0.80;;;;;;;24.96;58.49;101417.81;5059241;28;20124;-84
2021/06/06 09:31:24;;;;;;;0.63;0.60;;;;;;;25.10;57.00;101418.91;5072198;28;20023;-84
2021/06/06 09:34:00;;;;;;;0.85;0.70;;;;;;;24.91;58.14;101412.09;5062289;28;20033;-84
2021/06/06 09:36:32;;;;;;;2.88;0.60;;;;;;;25.07;57.51;101421.94;5054772;28;20051;-84
2021/06/06 09:39:01;;;;;;;0.60;0.57;;;;;;;25.18;58.92;101426.94;5049892;28;20053;-84
2021/06/06 09:41:26;;;;;;;0.57;0.40;;;;;;;24.76;59.58;101427.25;5053743;28;20029;-86
2021/06/06 09:44:19;;;;;;;0.40;0.40;;;;;;;24.71;60.43;101433.16;5058791;28;20039;-86
2021/06/06 09:46:54;;;;;;;0.30;0.30;;;;;;;24.80;61.67;101431.28;5073246;28;20071;-86
2021/06/06 09:49:40;;;;;;;0.40;0.30;;;;;;;25.07;61.16;101436.19;5073244;28;20034;-86
2021/06/06 09:52:29;;;;;;;0.52;0.40;;;;;;;24.85;62.02;101432.44;5071545;28;20482;-85
2021/06/06 09:54:58;;;;;;;0.63;0.43;;;;;;;24.63;61.72;101435.88;5056943;28;20040;-84
2021/06/06 09:57:33;;;;;;;0.85;0.40;;;;;;;24.51;62.57;101436.22;5056788;28;20028;-84
2021/06/06 10:00:04;;;;;;;0.50;0.35;;;;;;;24.22;63.80;101441.25;5055245;28;20493;-84
2021/06/06 10:02:35;;;;;;;0.45;0.40;;;;;;;23.93;65.18;101446.13;5064974;28;20535;-84
2021/06/06 10:05:05;;;;;;;;;;;;;;;24.01;64.79;101445.28;5062399;28;20037;-85
2021/06/06 10:07:36;;;;;;;0.38;0.38;;;;;;;24.00;65.82;101448.97;5064092;28;19955;-88
2021/06/06 10:10:22;;;;;;;0.63;0.55;;;;;;;24.12;65.42;101444.94;5058515;28;20036;-84
2021/06/06 10:12:49;;;;;;;0.80;0.52;;;;;;;24.08;64.97;101443.59;5064503;28;20182;-86
2021/06/06 10:15:25;;;;;;;0.50;0.50;;;;;;;23.74;65.71;101455.28;5068389;28;20389;-84
2021/06/06 10:17:55;;;;;;;1.10;0.60;;;;;;;23.35;67.48;101447.81;5072470;28;20583;-84
2021/06/06 10:20:23;;;;;;;0.77;0.65;;;;;;;23.69;65.31;101451.41;5065218;28;20482;-84
2021/06/06 10:22:53;;;;;;;1.23;0.50;;;;;;;24.00;65.49;101448.97;5047517;28;20382;-84
2021/06/06 10:25:23;;;;;;;0.65;0.63;;;;;;;24.39;65.27;101442.94;5053867;28;20025;-84
2021/06/06 10:27:54;;;;;;;0.70;0.70;;;;;;;23.66;66.23;101444.56;5054766;28;20551;-84
2021/06/06 10:30:25;;;;;;;0.47;0.47;;;;;;;24.56;64.87;101438.38;5052259;28;20110;-84
2021/06/06 10:32:54;;;;;;;;;;;;;;;25.36;60.36;101439.31;5068203;28;20401;-85
2021/06/06 10:35:24;;;;;;;0.95;0.52;;;;;;;26.04;57.95;101445.75;5055633;28;19928;-85
2021/06/06 10:37:53;;;;;;;0.40;0.30;;;;;;;27.36;54.65;101437.94;5061846;28;20017;-85
2021/06/06 10:40:30;;;;;;;0.63;0.40;;;;;;;27.64;52.63;101435.34;5070297;28;20040;-85
2021/06/06 10:44:27;;;;;;;1.17;0.50;;;;;;;27.73;52.15;101432.53;5112245;27;20843;-84
2021/06/06 10:47:01;;;;;;;0.45;0.40;;;;;;;28.70;50.38;101429.19;5089283;28;20056;-84
2021/06/06 10:49:35;;;;;;;0.95;0.55;;;;;;;29.86;46.96;101425.66;5089360;28;20120;-85
2021/06/06 10:52:24;;;;;;;2.53;0.30;;;;;;;30.14;44.91;101425.44;5088519;28;20370;-84
2021/06/06 10:54:54;;;;;;;0.20;0.20;;;;;;;30.62;42.63;101427.88;5088941;28;20104;-85
2021/06/06 10:57:22;;;;;;;0.63;0.30;;;;;;;30.07;43.61;101429.19;5086286;28;20105;-85
2021/06/06 10:59:55;;;;;;;0.63;0.30;;;;;;;29.77;44.64;101426.88;5088694;28;20059;-85
2021/06/06 11:02:49;;;;;;;0.40;0.20;;;;;;;29.65;43.20;101424.75;5088582;28;20480;-85
2021/06/06 11:05:26;;;;;;;0.52;0.30;;;;;;;29.67;42.67;101425.38;5090497;28;20023;-85
2021/06/06 11:07:51;;;;;;;0.40;0.20;;;;;;;29.75;41.45;101415.44;5094005;28;20032;-85
2021/06/06 11:10:18;;;;;;;0.47;0.30;;;;;;;30.04;40.45;101420.44;5087524;28;20028;-85
2021/06/06 11:12:46;;;;;;;0.55;0.20;;;;;;;29.89;41.01;101418.97;5086698;28;20017;-85
2021/06/06 11:15:33;;;;;;;0.10;0.10;;;;;;;30.11;42.26;101420.44;5098053;27;20074;-85
2021/06/06 11:18:15;;;;;;;0.22;0.10;;;;;;;31.37;38.54;101419.25;5108237;28;20034;-85
2021/06/06 11:21:05;;;;;;;0.10;0.10;;;;;;;31.23;37.75;101412.25;5107986;28;20470;-85
2021/06/06 11:23:39;;;;;;;0.03;0.03;;;;;;;32.15;37.55;101414.53;5108710;28;20032;-85
2021/06/06 11:26:35;;;;;;;0.35;0.20;;;;;;;33.51;32.92;101398.91;5108830;28;20027;-86
2021/06/06 11:29:20;;;;;;;1.00;0.17;;;;;;;33.63;33.26;101403.56;5108713;28;20174;-86
2021/06/06 11:32:11;;;;;;;1.65;0.20;;;;;;;33.58;31.38;101401.53;5108424;28;20036;-86
2021/06/06 11:34:39;;;;;;;0.10;0.10;;;;;;;34.32;32.31;101402.00;5105883;28;20110;-86
2021/06/06 11:37:07;;;;;;;0.28;0.10;;;;;;;34.69;30.58;101406.34;5108319;28;20043;-86
2021/06/06 11:39:47;;;;;;;0.00;0.00;;;;;;;35.26;30.43;101411.84;5108442;28;20028;-86